Hlavní strana
METAR-TAF:

METAR-TAF

Letiště :

Pantelleria, Itálie

zeměpisná šířka: 36-49N, zeměpisná délka: 011-58E, výška: 191 m

Aktuální stav počasí

Zpráva byla vytvořena před 2 hodinami a 8 minutami, v 17:50 UTC
Západní vítr 17 kt
Teplota 13°C
Vlhkost vzduchu 77%
Tlak 1021 hPa
Viditelnost 10 km a více
Skoro jasno ve výšce 2500 ft

METAR: LICG 131750Z 28017KT 9999 FEW025 13/09 Q1021

Čas: 21:58 (19:58 UTC)

Předpověď počasí

Zpráva byla vytvořena před 2 hodinami a 58 minutami, v 17:00 UTC
Předpověď platná od 13 v 18 UTC do 14 v 03 UTC
Západoseverozápadní vítr 20 kt s nárazy do 30 kt
Viditelnost 10 km a více
Skoro jasno ve výšce 3000 ft
Změna
od 13 v 18 UTC do 13 v 20 UTC
Severozápadní vítr 17 kt

TAF: LICG 131700Z 1318/1403 30020G30KT 9999 FEW030 BECMG 1318/1320 32017KT

Stav a předpovědi počasí z více než 4 000 letišť (zprávy METAR a TAF).

Červené a žluté tečky na mapě představují dostupné meteorologické stanice.

Když kurzor umístíte na tečku, zobrazí se název stanice.

Pak kliknutím zobrazíte stav a předpověď počasí.

Chcete-li změnit mapu, kliknutím na zelené tlačítko se znaménkem +mapu přiblížíte, kliknutím na zelené tlačítko se znaménkem – mapu oddálíte a kliknutím na zelené šipky přejdete na sousední mapy.


METAR-TAF: